sensor_id;sensor_type;location;lat;lon;timestamp;temperature;humidity
4631;DHT22;2328;48.170;11.602;2024-01-25T00:01:18;8.00;99.90
4631;DHT22;2328;48.170;11.602;2024-01-25T00:03:49;8.00;99.90
4631;DHT22;2328;48.170;11.602;2024-01-25T00:06:18;8.00;99.90
4631;DHT22;2328;48.170;11.602;2024-01-25T00:08:48;8.00;99.90
4631;DHT22;2328;48.170;11.602;2024-01-25T00:11:29;8.00;99.90
4631;DHT22;2328;48.170;11.602;2024-01-25T00:13:58;8.00;99.90
4631;DHT22;2328;48.170;11.602;2024-01-25T00:16:29;8.00;99.90
4631;DHT22;2328;48.170;11.602;2024-01-25T00:19:00;7.90;99.90
4631;DHT22;2328;48.170;11.602;2024-01-25T00:21:32;7.90;99.90
4631;DHT22;2328;48.170;11.602;2024-01-25T00:24:03;8.00;99.90
4631;DHT22;2328;48.170;11.602;2024-01-25T00:26:36;8.00;99.90
4631;DHT22;2328;48.170;11.602;2024-01-25T00:29:05;7.90;99.90
4631;DHT22;2328;48.170;11.602;2024-01-25T00:31:36;7.90;99.90
4631;DHT22;2328;48.170;11.602;2024-01-25T00:34:06;7.90;99.90
4631;DHT22;2328;48.170;11.602;2024-01-25T00:36:49;7.90;99.90
4631;DHT22;2328;48.170;11.602;2024-01-25T00:39:20;7.90;99.90
4631;DHT22;2328;48.170;11.602;2024-01-25T00:41:52;7.90;99.90
4631;DHT22;2328;48.170;11.602;2024-01-25T00:44:23;8.00;99.90
4631;DHT22;2328;48.170;11.602;2024-01-25T00:46:55;8.00;99.90
4631;DHT22;2328;48.170;11.602;2024-01-25T00:49:25;8.00;99.90
4631;DHT22;2328;48.170;11.602;2024-01-25T00:52:08;8.00;99.90
4631;DHT22;2328;48.170;11.602;2024-01-25T00:54:37;8.00;99.90
4631;DHT22;2328;48.170;11.602;2024-01-25T00:57:12;8.10;99.90
4631;DHT22;2328;48.170;11.602;2024-01-25T00:59:45;8.00;99.90
4631;DHT22;2328;48.170;11.602;2024-01-25T01:02:24;8.00;99.90
4631;DHT22;2328;48.170;11.602;2024-01-25T01:04:58;8.10;99.90
4631;DHT22;2328;48.170;11.602;2024-01-25T01:07:27;8.00;99.90
4631;DHT22;2328;48.170;11.602;2024-01-25T01:10:24;8.10;99.90
4631;DHT22;2328;48.170;11.602;2024-01-25T01:12:57;8.10;99.90
4631;DHT22;2328;48.170;11.602;2024-01-25T01:15:25;8.10;99.90
4631;DHT22;2328;48.170;11.602;2024-01-25T01:17:56;8.20;99.90
4631;DHT22;2328;48.170;11.602;2024-01-25T01:20:33;8.20;99.90
4631;DHT22;2328;48.170;11.602;2024-01-25T01:23:02;8.20;99.90
4631;DHT22;2328;48.170;11.602;2024-01-25T01:25:31;8.30;99.90
4631;DHT22;2328;48.170;11.602;2024-01-25T01:28:02;8.20;99.90
4631;DHT22;2328;48.170;11.602;2024-01-25T01:30:34;8.20;99.90
4631;DHT22;2328;48.170;11.602;2024-01-25T01:33:03;8.20;99.90
4631;DHT22;2328;48.170;11.602;2024-01-25T01:35:32;8.20;99.90
4631;DHT22;2328;48.170;11.602;2024-01-25T01:38:02;8.20;99.90
4631;DHT22;2328;48.170;11.602;2024-01-25T01:40:30;8.20;99.90
4631;DHT22;2328;48.170;11.602;2024-01-25T01:43:35;8.20;99.90
4631;DHT22;2328;48.170;11.602;2024-01-25T01:46:09;8.10;99.90
4631;DHT22;2328;48.170;11.602;2024-01-25T01:48:40;8.00;99.90
4631;DHT22;2328;48.170;11.602;2024-01-25T01:51:09;8.10;99.90
4631;DHT22;2328;48.170;11.602;2024-01-25T01:53:40;8.10;99.90
4631;DHT22;2328;48.170;11.602;2024-01-25T01:56:11;8.10;99.90
4631;DHT22;2328;48.170;11.602;2024-01-25T01:58:42;8.00;99.90
4631;DHT22;2328;48.170;11.602;2024-01-25T02:01:13;8.00;99.90
4631;DHT22;2328;48.170;11.602;2024-01-25T02:03:41;8.10;99.90
4631;DHT22;2328;48.170;11.602;2024-01-25T02:06:11;8.10;99.90
4631;DHT22;2328;48.170;11.602;2024-01-25T02:08:41;8.00;99.90
4631;DHT22;2328;48.170;11.602;2024-01-25T02:11:12;8.10;99.90
4631;DHT22;2328;48.170;11.602;2024-01-25T02:13:42;8.10;99.90
4631;DHT22;2328;48.170;11.602;2024-01-25T02:16:14;8.00;99.90
4631;DHT22;2328;48.170;11.602;2024-01-25T02:18:45;8.00;99.90
4631;DHT22;2328;48.170;11.602;2024-01-25T02:21:17;8.00;99.90
4631;DHT22;2328;48.170;11.602;2024-01-25T02:23:47;8.00;99.90
4631;DHT22;2328;48.170;11.602;2024-01-25T02:26:19;8.00;99.90
4631;DHT22;2328;48.170;11.602;2024-01-25T02:28:47;8.00;99.90
4631;DHT22;2328;48.170;11.602;2024-01-25T02:31:21;8.00;99.90
4631;DHT22;2328;48.170;11.602;2024-01-25T02:33:50;8.10;99.90
4631;DHT22;2328;48.170;11.602;2024-01-25T02:36:22;8.10;99.90
4631;DHT22;2328;48.170;11.602;2024-01-25T02:39:00;8.10;99.90
4631;DHT22;2328;48.170;11.602;2024-01-25T02:41:32;8.10;99.90
4631;DHT22;2328;48.170;11.602;2024-01-25T02:44:01;8.00;99.90
4631;DHT22;2328;48.170;11.602;2024-01-25T02:46:35;8.10;99.90
4631;DHT22;2328;48.170;11.602;2024-01-25T02:49:15;8.00;99.90
4631;DHT22;2328;48.170;11.602;2024-01-25T02:51:45;8.00;99.90
4631;DHT22;2328;48.170;11.602;2024-01-25T02:54:21;8.00;99.90
4631;DHT22;2328;48.170;11.602;2024-01-25T02:56:50;7.90;99.90
4631;DHT22;2328;48.170;11.602;2024-01-25T02:59:18;8.00;99.90
4631;DHT22;2328;48.170;11.602;2024-01-25T03:01:49;8.00;99.90
4631;DHT22;2328;48.170;11.602;2024-01-25T03:04:19;8.00;99.90
4631;DHT22;2328;48.170;11.602;2024-01-25T03:06:48;8.00;99.90
4631;DHT22;2328;48.170;11.602;2024-01-25T03:09:18;8.00;99.90
4631;DHT22;2328;48.170;11.602;2024-01-25T03:11:52;8.00;99.90
4631;DHT22;2328;48.170;11.602;2024-01-25T03:14:19;8.00;99.90
4631;DHT22;2328;48.170;11.602;2024-01-25T03:16:48;8.10;99.90
4631;DHT22;2328;48.170;11.602;2024-01-25T03:19:18;8.10;99.90
4631;DHT22;2328;48.170;11.602;2024-01-25T03:21:47;8.10;99.90
4631;DHT22;2328;48.170;11.602;2024-01-25T03:24:31;8.10;99.90
4631;DHT22;2328;48.170;11.602;2024-01-25T03:27:05;8.10;99.90
4631;DHT22;2328;48.170;11.602;2024-01-25T03:29:43;8.10;99.90
4631;DHT22;2328;48.170;11.602;2024-01-25T03:32:13;8.10;99.90
4631;DHT22;2328;48.170;11.602;2024-01-25T03:34:42;8.10;99.90
4631;DHT22;2328;48.170;11.602;2024-01-25T03:37:15;8.10;99.90
4631;DHT22;2328;48.170;11.602;2024-01-25T03:39:44;8.00;99.90
4631;DHT22;2328;48.170;11.602;2024-01-25T03:42:14;8.00;99.90
4631;DHT22;2328;48.170;11.602;2024-01-25T03:44:52;8.00;99.90
4631;DHT22;2328;48.170;11.602;2024-01-25T03:47:21;7.90;99.90
4631;DHT22;2328;48.170;11.602;2024-01-25T03:49:49;8.00;99.90
4631;DHT22;2328;48.170;11.602;2024-01-25T03:52:19;8.00;99.90
4631;DHT22;2328;48.170;11.602;2024-01-25T03:54:49;8.00;99.90
4631;DHT22;2328;48.170;11.602;2024-01-25T03:57:19;8.10;99.90
4631;DHT22;2328;48.170;11.602;2024-01-25T03:59:48;8.10;99.90
4631;DHT22;2328;48.170;11.602;2024-01-25T04:02:18;8.00;99.90
4631;DHT22;2328;48.170;11.602;2024-01-25T04:05:02;8.00;99.90
4631;DHT22;2328;48.170;11.602;2024-01-25T04:07:38;8.00;99.90
4631;DHT22;2328;48.170;11.602;2024-01-25T04:10:07;7.90;99.90
4631;DHT22;2328;48.170;11.602;2024-01-25T04:12:45;8.00;99.90
4631;DHT22;2328;48.170;11.602;2024-01-25T04:15:13;8.00;99.90
4631;DHT22;2328;48.170;11.602;2024-01-25T04:17:51;8.00;99.90
4631;DHT22;2328;48.170;11.602;2024-01-25T04:20:20;8.00;99.90
4631;DHT22;2328;48.170;11.602;2024-01-25T04:22:51;7.90;99.90
4631;DHT22;2328;48.170;11.602;2024-01-25T04:25:20;7.90;99.90
4631;DHT22;2328;48.170;11.602;2024-01-25T04:28:07;7.90;99.90
4631;DHT22;2328;48.170;11.602;2024-01-25T04:30:36;8.00;99.90
4631;DHT22;2328;48.170;11.602;2024-01-25T04:33:05;8.00;99.90
4631;DHT22;2328;48.170;11.602;2024-01-25T04:35:34;8.10;99.90
4631;DHT22;2328;48.170;11.602;2024-01-25T04:38:02;8.10;99.90
4631;DHT22;2328;48.170;11.602;2024-01-25T04:40:33;8.20;99.90
4631;DHT22;2328;48.170;11.602;2024-01-25T04:43:03;8.10;99.90
4631;DHT22;2328;48.170;11.602;2024-01-25T04:45:50;8.10;99.90
4631;DHT22;2328;48.170;11.602;2024-01-25T04:48:20;8.10;99.90
4631;DHT22;2328;48.170;11.602;2024-01-25T04:50:51;8.10;99.90
4631;DHT22;2328;48.170;11.602;2024-01-25T04:53:21;8.10;99.90
4631;DHT22;2328;48.170;11.602;2024-01-25T04:55:50;8.10;99.90
4631;DHT22;2328;48.170;11.602;2024-01-25T04:58:21;8.00;99.90
4631;DHT22;2328;48.170;11.602;2024-01-25T05:00:54;8.00;99.90
4631;DHT22;2328;48.170;11.602;2024-01-25T05:03:22;8.00;99.90
4631;DHT22;2328;48.170;11.602;2024-01-25T05:05:52;8.00;99.90
4631;DHT22;2328;48.170;11.602;2024-01-25T05:08:21;8.00;99.90
4631;DHT22;2328;48.170;11.602;2024-01-25T05:10:50;7.90;99.90
4631;DHT22;2328;48.170;11.602;2024-01-25T05:13:27;7.90;99.90
4631;DHT22;2328;48.170;11.602;2024-01-25T05:15:59;7.80;99.90
4631;DHT22;2328;48.170;11.602;2024-01-25T05:18:32;7.90;99.90
4631;DHT22;2328;48.170;11.602;2024-01-25T05:21:04;7.90;99.90
4631;DHT22;2328;48.170;11.602;2024-01-25T05:23:32;7.70;99.90
4631;DHT22;2328;48.170;11.602;2024-01-25T05:26:02;7.70;99.90
4631;DHT22;2328;48.170;11.602;2024-01-25T05:28:31;7.80;99.90
4631;DHT22;2328;48.170;11.602;2024-01-25T05:31:09;7.80;99.90
4631;DHT22;2328;48.170;11.602;2024-01-25T05:33:54;7.90;99.90
4631;DHT22;2328;48.170;11.602;2024-01-25T05:36:28;7.80;99.90
4631;DHT22;2328;48.170;11.602;2024-01-25T05:38:59;7.80;99.90
4631;DHT22;2328;48.170;11.602;2024-01-25T05:41:35;7.80;99.90
4631;DHT22;2328;48.170;11.602;2024-01-25T05:44:04;7.80;99.90
4631;DHT22;2328;48.170;11.602;2024-01-25T05:46:35;7.90;99.90
4631;DHT22;2328;48.170;11.602;2024-01-25T05:49:04;7.90;99.90
4631;DHT22;2328;48.170;11.602;2024-01-25T05:51:34;7.90;99.90
4631;DHT22;2328;48.170;11.602;2024-01-25T05:54:15;7.80;99.90
4631;DHT22;2328;48.170;11.602;2024-01-25T05:56:52;7.80;99.90
4631;DHT22;2328;48.170;11.602;2024-01-25T05:59:21;7.60;99.90
4631;DHT22;2328;48.170;11.602;2024-01-25T06:01:56;7.60;99.90
4631;DHT22;2328;48.170;11.602;2024-01-25T06:04:25;7.60;99.90
4631;DHT22;2328;48.170;11.602;2024-01-25T06:06:54;7.60;99.90
4631;DHT22;2328;48.170;11.602;2024-01-25T06:09:25;7.70;99.90
4631;DHT22;2328;48.170;11.602;2024-01-25T06:11:55;7.70;99.90
4631;DHT22;2328;48.170;11.602;2024-01-25T06:14:24;7.80;99.90
4631;DHT22;2328;48.170;11.602;2024-01-25T06:16:56;7.70;99.90
4631;DHT22;2328;48.170;11.602;2024-01-25T06:19:26;7.70;99.90
4631;DHT22;2328;48.170;11.602;2024-01-25T06:21:56;7.60;99.90
4631;DHT22;2328;48.170;11.602;2024-01-25T06:24:25;7.70;99.90
4631;DHT22;2328;48.170;11.602;2024-01-25T06:26:54;7.60;99.90
4631;DHT22;2328;48.170;11.602;2024-01-25T06:29:22;7.60;99.90
4631;DHT22;2328;48.170;11.602;2024-01-25T06:31:51;7.60;99.90
4631;DHT22;2328;48.170;11.602;2024-01-25T06:34:21;7.50;99.90
4631;DHT22;2328;48.170;11.602;2024-01-25T06:36:52;7.40;99.90
4631;DHT22;2328;48.170;11.602;2024-01-25T06:39:21;7.30;99.90
4631;DHT22;2328;48.170;11.602;2024-01-25T06:41:49;7.20;99.90
4631;DHT22;2328;48.170;11.602;2024-01-25T06:44:19;7.20;99.90
4631;DHT22;2328;48.170;11.602;2024-01-25T06:46:49;7.10;99.90
4631;DHT22;2328;48.170;11.602;2024-01-25T06:49:21;7.10;99.90
4631;DHT22;2328;48.170;11.602;2024-01-25T06:51:51;6.90;99.90
4631;DHT22;2328;48.170;11.602;2024-01-25T06:54:20;6.90;99.90
4631;DHT22;2328;48.170;11.602;2024-01-25T06:56:51;6.80;99.90
4631;DHT22;2328;48.170;11.602;2024-01-25T06:59:26;6.80;99.90
4631;DHT22;2328;48.170;11.602;2024-01-25T07:02:33;6.80;99.90
4631;DHT22;2328;48.170;11.602;2024-01-25T07:05:05;6.70;99.90
4631;DHT22;2328;48.170;11.602;2024-01-25T07:07:35;6.80;99.90
4631;DHT22;2328;48.170;11.602;2024-01-25T07:10:12;6.80;99.90
4631;DHT22;2328;48.170;11.602;2024-01-25T07:12:42;6.80;99.90
4631;DHT22;2328;48.170;11.602;2024-01-25T07:15:13;6.80;99.90
4631;DHT22;2328;48.170;11.602;2024-01-25T07:17:44;6.80;99.90
4631;DHT22;2328;48.170;11.602;2024-01-25T07:20:16;6.70;99.90
4631;DHT22;2328;48.170;11.602;2024-01-25T07:22:49;6.70;99.90
4631;DHT22;2328;48.170;11.602;2024-01-25T07:25:24;6.90;99.90
4631;DHT22;2328;48.170;11.602;2024-01-25T07:27:53;6.90;99.90
4631;DHT22;2328;48.170;11.602;2024-01-25T07:30:39;6.90;99.90
4631;DHT22;2328;48.170;11.602;2024-01-25T07:33:18;7.10;99.90
4631;DHT22;2328;48.170;11.602;2024-01-25T07:35:47;7.20;99.90
4631;DHT22;2328;48.170;11.602;2024-01-25T07:38:24;7.20;99.90
4631;DHT22;2328;48.170;11.602;2024-01-25T07:40:53;7.20;99.90
4631;DHT22;2328;48.170;11.602;2024-01-25T07:43:22;7.20;99.90
4631;DHT22;2328;48.170;11.602;2024-01-25T07:45:53;7.20;99.90
4631;DHT22;2328;48.170;11.602;2024-01-25T07:48:27;7.20;99.90
4631;DHT22;2328;48.170;11.602;2024-01-25T07:51:02;7.10;99.90
4631;DHT22;2328;48.170;11.602;2024-01-25T07:53:32;7.20;99.90
4631;DHT22;2328;48.170;11.602;2024-01-25T07:56:05;7.20;99.90
4631;DHT22;2328;48.170;11.602;2024-01-25T07:58:35;7.20;99.90
4631;DHT22;2328;48.170;11.602;2024-01-25T08:01:04;7.20;99.90
4631;DHT22;2328;48.170;11.602;2024-01-25T08:03:41;7.30;99.90
4631;DHT22;2328;48.170;11.602;2024-01-25T08:06:09;7.30;99.90
4631;DHT22;2328;48.170;11.602;2024-01-25T08:08:41;7.30;99.90
4631;DHT22;2328;48.170;11.602;2024-01-25T08:11:10;7.40;99.90
4631;DHT22;2328;48.170;11.602;2024-01-25T08:13:42;7.40;99.90
4631;DHT22;2328;48.170;11.602;2024-01-25T08:16:11;7.50;99.90
4631;DHT22;2328;48.170;11.602;2024-01-25T08:18:49;7.50;99.90
4631;DHT22;2328;48.170;11.602;2024-01-25T08:21:18;7.50;99.90
4631;DHT22;2328;48.170;11.602;2024-01-25T08:23:52;7.50;99.90
4631;DHT22;2328;48.170;11.602;2024-01-25T08:26:21;7.50;99.90
4631;DHT22;2328;48.170;11.602;2024-01-25T08:28:54;7.60;99.90
4631;DHT22;2328;48.170;11.602;2024-01-25T08:31:23;7.70;99.90
4631;DHT22;2328;48.170;11.602;2024-01-25T08:33:54;8.00;99.90
4631;DHT22;2328;48.170;11.602;2024-01-25T08:36:24;8.00;99.90
4631;DHT22;2328;48.170;11.602;2024-01-25T08:38:53;8.10;99.90
4631;DHT22;2328;48.170;11.602;2024-01-25T08:41:21;8.10;99.90
4631;DHT22;2328;48.170;11.602;2024-01-25T08:43:50;8.30;99.90
4631;DHT22;2328;48.170;11.602;2024-01-25T08:46:19;8.50;99.90
4631;DHT22;2328;48.170;11.602;2024-01-25T08:48:50;8.60;99.90
4631;DHT22;2328;48.170;11.602;2024-01-25T08:51:26;8.70;99.90
4631;DHT22;2328;48.170;11.602;2024-01-25T08:53:57;8.70;99.90
4631;DHT22;2328;48.170;11.602;2024-01-25T08:56:26;8.60;99.90
4631;DHT22;2328;48.170;11.602;2024-01-25T08:58:55;8.50;99.90
4631;DHT22;2328;48.170;11.602;2024-01-25T09:01:25;8.40;99.90
4631;DHT22;2328;48.170;11.602;2024-01-25T09:03:53;8.30;99.90
4631;DHT22;2328;48.170;11.602;2024-01-25T09:06:27;8.30;99.90
4631;DHT22;2328;48.170;11.602;2024-01-25T09:09:02;8.20;99.90
4631;DHT22;2328;48.170;11.602;2024-01-25T09:11:31;8.20;99.90
4631;DHT22;2328;48.170;11.602;2024-01-25T09:14:00;8.20;99.90
4631;DHT22;2328;48.170;11.602;2024-01-25T09:16:30;8.30;99.90
4631;DHT22;2328;48.170;11.602;2024-01-25T09:19:00;8.40;99.90
4631;DHT22;2328;48.170;11.602;2024-01-25T09:21:31;8.50;99.90
4631;DHT22;2328;48.170;11.602;2024-01-25T09:23:59;8.50;99.90
4631;DHT22;2328;48.170;11.602;2024-01-25T09:26:32;8.60;99.90
4631;DHT22;2328;48.170;11.602;2024-01-25T09:29:01;8.60;99.90
4631;DHT22;2328;48.170;11.602;2024-01-25T09:31:30;8.60;99.90
4631;DHT22;2328;48.170;11.602;2024-01-25T09:34:00;8.60;99.90
4631;DHT22;2328;48.170;11.602;2024-01-25T09:36:31;8.70;99.90
4631;DHT22;2328;48.170;11.602;2024-01-25T09:39:00;8.70;99.90
4631;DHT22;2328;48.170;11.602;2024-01-25T09:41:29;8.60;99.90
4631;DHT22;2328;48.170;11.602;2024-01-25T09:43:58;8.70;99.90
4631;DHT22;2328;48.170;11.602;2024-01-25T09:46:27;8.70;99.90
4631;DHT22;2328;48.170;11.602;2024-01-25T09:48:56;8.80;99.90
4631;DHT22;2328;48.170;11.602;2024-01-25T09:51:28;8.80;99.90
4631;DHT22;2328;48.170;11.602;2024-01-25T09:54:00;8.70;99.90
4631;DHT22;2328;48.170;11.602;2024-01-25T09:56:31;8.70;99.90
4631;DHT22;2328;48.170;11.602;2024-01-25T09:59:01;8.60;99.90
4631;DHT22;2328;48.170;11.602;2024-01-25T10:01:30;8.50;99.90
4631;DHT22;2328;48.170;11.602;2024-01-25T10:04:00;8.50;99.90
4631;DHT22;2328;48.170;11.602;2024-01-25T10:06:28;8.50;99.90
4631;DHT22;2328;48.170;11.602;2024-01-25T10:09:00;8.50;99.90
4631;DHT22;2328;48.170;11.602;2024-01-25T10:11:34;8.50;99.90
4631;DHT22;2328;48.170;11.602;2024-01-25T10:14:10;8.70;99.90
4631;DHT22;2328;48.170;11.602;2024-01-25T10:16:39;8.70;99.90
4631;DHT22;2328;48.170;11.602;2024-01-25T10:19:12;8.70;99.90
4631;DHT22;2328;48.170;11.602;2024-01-25T10:21:43;8.80;99.90
4631;DHT22;2328;48.170;11.602;2024-01-25T10:24:14;8.90;99.90
4631;DHT22;2328;48.170;11.602;2024-01-25T10:26:44;8.90;99.90
4631;DHT22;2328;48.170;11.602;2024-01-25T10:29:14;9.00;99.90
4631;DHT22;2328;48.170;11.602;2024-01-25T10:31:43;8.90;99.90
4631;DHT22;2328;48.170;11.602;2024-01-25T10:34:14;9.00;99.90
4631;DHT22;2328;48.170;11.602;2024-01-25T10:36:44;9.00;99.90
4631;DHT22;2328;48.170;11.602;2024-01-25T10:39:16;9.00;99.90
4631;DHT22;2328;48.170;11.602;2024-01-25T10:41:49;9.00;99.90
4631;DHT22;2328;48.170;11.602;2024-01-25T10:44:19;9.00;99.90
4631;DHT22;2328;48.170;11.602;2024-01-25T10:46:48;9.30;99.90
4631;DHT22;2328;48.170;11.602;2024-01-25T10:49:21;9.40;99.90
4631;DHT22;2328;48.170;11.602;2024-01-25T10:51:52;9.50;99.90
4631;DHT22;2328;48.170;11.602;2024-01-25T10:54:23;9.50;99.90
4631;DHT22;2328;48.170;11.602;2024-01-25T10:56:53;9.50;99.90
4631;DHT22;2328;48.170;11.602;2024-01-25T10:59:22;9.50;99.90
4631;DHT22;2328;48.170;11.602;2024-01-25T11:01:54;9.60;99.90
4631;DHT22;2328;48.170;11.602;2024-01-25T11:04:36;9.70;99.90
4631;DHT22;2328;48.170;11.602;2024-01-25T11:07:06;9.70;99.90
4631;DHT22;2328;48.170;11.602;2024-01-25T11:09:37;9.60;99.90
4631;DHT22;2328;48.170;11.602;2024-01-25T11:12:12;9.60;99.90
4631;DHT22;2328;48.170;11.602;2024-01-25T11:14:41;9.60;99.90
4631;DHT22;2328;48.170;11.602;2024-01-25T11:17:19;9.70;99.90
4631;DHT22;2328;48.170;11.602;2024-01-25T11:19:48;9.80;99.90
4631;DHT22;2328;48.170;11.602;2024-01-25T11:22:19;9.70;99.90
4631;DHT22;2328;48.170;11.602;2024-01-25T11:24:50;9.80;99.90
4631;DHT22;2328;48.170;11.602;2024-01-25T11:27:18;9.70;99.90
4631;DHT22;2328;48.170;11.602;2024-01-25T11:29:47;9.80;99.90
4631;DHT22;2328;48.170;11.602;2024-01-25T11:32:16;9.70;99.90
4631;DHT22;2328;48.170;11.602;2024-01-25T11:34:46;9.70;99.90
4631;DHT22;2328;48.170;11.602;2024-01-25T11:37:15;9.60;99.90
4631;DHT22;2328;48.170;11.602;2024-01-25T11:39:45;9.50;99.90
4631;DHT22;2328;48.170;11.602;2024-01-25T11:42:18;9.30;99.90
4631;DHT22;2328;48.170;11.602;2024-01-25T11:44:47;9.20;99.90
4631;DHT22;2328;48.170;11.602;2024-01-25T11:47:15;9.20;99.90
4631;DHT22;2328;48.170;11.602;2024-01-25T11:49:46;9.20;99.90
4631;DHT22;2328;48.170;11.602;2024-01-25T11:52:16;9.20;99.90
4631;DHT22;2328;48.170;11.602;2024-01-25T11:54:45;9.20;99.90
4631;DHT22;2328;48.170;11.602;2024-01-25T11:57:16;9.30;99.90
4631;DHT22;2328;48.170;11.602;2024-01-25T11:59:49;9.40;99.90
4631;DHT22;2328;48.170;11.602;2024-01-25T12:02:18;9.40;99.90
4631;DHT22;2328;48.170;11.602;2024-01-25T12:04:56;9.50;99.90
4631;DHT22;2328;48.170;11.602;2024-01-25T12:07:39;9.50;99.90
4631;DHT22;2328;48.170;11.602;2024-01-25T12:10:16;9.40;99.90
4631;DHT22;2328;48.170;11.602;2024-01-25T12:12:48;9.30;99.90
4631;DHT22;2328;48.170;11.602;2024-01-25T12:15:17;9.30;99.90
4631;DHT22;2328;48.170;11.602;2024-01-25T12:17:48;9.30;99.90
4631;DHT22;2328;48.170;11.602;2024-01-25T12:20:18;9.50;99.90
4631;DHT22;2328;48.170;11.602;2024-01-25T12:22:58;9.60;99.90
4631;DHT22;2328;48.170;11.602;2024-01-25T12:25:27;9.70;99.90
4631;DHT22;2328;48.170;11.602;2024-01-25T12:28:00;9.90;99.90
4631;DHT22;2328;48.170;11.602;2024-01-25T12:30:32;10.10;99.90
4631;DHT22;2328;48.170;11.602;2024-01-25T12:33:02;10.10;99.90
4631;DHT22;2328;48.170;11.602;2024-01-25T12:35:31;10.00;99.90
4631;DHT22;2328;48.170;11.602;2024-01-25T12:38:01;9.90;99.90
4631;DHT22;2328;48.170;11.602;2024-01-25T12:40:37;10.10;99.90
4631;DHT22;2328;48.170;11.602;2024-01-25T12:43:09;10.40;99.90
4631;DHT22;2328;48.170;11.602;2024-01-25T12:45:38;10.70;99.90
4631;DHT22;2328;48.170;11.602;2024-01-25T12:48:08;11.10;99.90
4631;DHT22;2328;48.170;11.602;2024-01-25T12:50:37;11.40;99.90
4631;DHT22;2328;48.170;11.602;2024-01-25T12:53:10;11.70;99.90
4631;DHT22;2328;48.170;11.602;2024-01-25T12:55:40;11.80;99.90
4631;DHT22;2328;48.170;11.602;2024-01-25T12:58:10;11.70;99.90
4631;DHT22;2328;48.170;11.602;2024-01-25T13:00:39;11.50;99.90
4631;DHT22;2328;48.170;11.602;2024-01-25T13:03:08;11.00;99.90
4631;DHT22;2328;48.170;11.602;2024-01-25T13:05:37;10.70;99.90
4631;DHT22;2328;48.170;11.602;2024-01-25T13:08:08;10.50;99.90
4631;DHT22;2328;48.170;11.602;2024-01-25T13:10:42;10.30;99.90
4631;DHT22;2328;48.170;11.602;2024-01-25T13:13:28;10.20;99.90
4631;DHT22;2328;48.170;11.602;2024-01-25T13:15:57;10.10;99.90
4631;DHT22;2328;48.170;11.602;2024-01-25T13:18:28;10.00;99.90
4631;DHT22;2328;48.170;11.602;2024-01-25T13:20:58;10.00;99.90
4631;DHT22;2328;48.170;11.602;2024-01-25T13:23:32;9.80;99.90
4631;DHT22;2328;48.170;11.602;2024-01-25T13:26:01;9.70;99.90
4631;DHT22;2328;48.170;11.602;2024-01-25T13:28:39;9.70;99.90
4631;DHT22;2328;48.170;11.602;2024-01-25T13:31:08;9.70;99.90
4631;DHT22;2328;48.170;11.602;2024-01-25T13:33:36;9.60;99.90
4631;DHT22;2328;48.170;11.602;2024-01-25T13:36:07;9.60;99.90
4631;DHT22;2328;48.170;11.602;2024-01-25T13:38:51;9.60;99.90
4631;DHT22;2328;48.170;11.602;2024-01-25T13:41:47;9.60;99.90
4631;DHT22;2328;48.170;11.602;2024-01-25T13:44:17;9.50;99.90
4631;DHT22;2328;48.170;11.602;2024-01-25T13:46:46;9.50;99.90
4631;DHT22;2328;48.170;11.602;2024-01-25T13:49:17;9.50;99.90
4631;DHT22;2328;48.170;11.602;2024-01-25T13:51:45;9.50;99.90
4631;DHT22;2328;48.170;11.602;2024-01-25T13:54:15;9.60;99.90
4631;DHT22;2328;48.170;11.602;2024-01-25T13:56:44;9.60;99.90
4631;DHT22;2328;48.170;11.602;2024-01-25T13:59:15;9.60;99.90
4631;DHT22;2328;48.170;11.602;2024-01-25T14:01:44;9.60;99.90
4631;DHT22;2328;48.170;11.602;2024-01-25T14:04:14;9.60;99.90
4631;DHT22;2328;48.170;11.602;2024-01-25T14:06:43;9.60;99.90
4631;DHT22;2328;48.170;11.602;2024-01-25T14:09:12;9.60;99.90
4631;DHT22;2328;48.170;11.602;2024-01-25T14:11:41;9.50;99.90
4631;DHT22;2328;48.170;11.602;2024-01-25T14:14:10;9.40;99.90
4631;DHT22;2328;48.170;11.602;2024-01-25T14:16:41;9.30;99.90
4631;DHT22;2328;48.170;11.602;2024-01-25T14:19:11;9.30;99.90
4631;DHT22;2328;48.170;11.602;2024-01-25T14:21:40;9.20;99.90
4631;DHT22;2328;48.170;11.602;2024-01-25T14:24:11;9.30;99.90
4631;DHT22;2328;48.170;11.602;2024-01-25T14:26:40;9.40;99.90
4631;DHT22;2328;48.170;11.602;2024-01-25T14:29:12;9.40;99.90
4631;DHT22;2328;48.170;11.602;2024-01-25T14:31:45;9.30;99.90
4631;DHT22;2328;48.170;11.602;2024-01-25T14:34:14;9.40;99.90
4631;DHT22;2328;48.170;11.602;2024-01-25T14:36:43;9.40;99.90
4631;DHT22;2328;48.170;11.602;2024-01-25T14:39:12;9.30;99.90
4631;DHT22;2328;48.170;11.602;2024-01-25T14:41:43;9.30;99.90
4631;DHT22;2328;48.170;11.602;2024-01-25T14:44:13;9.20;99.90
4631;DHT22;2328;48.170;11.602;2024-01-25T14:46:44;9.20;99.90
4631;DHT22;2328;48.170;11.602;2024-01-25T14:49:13;9.20;99.90
4631;DHT22;2328;48.170;11.602;2024-01-25T14:51:43;9.20;99.90
4631;DHT22;2328;48.170;11.602;2024-01-25T14:54:21;9.00;99.90
4631;DHT22;2328;48.170;11.602;2024-01-25T14:56:58;9.00;99.90
4631;DHT22;2328;48.170;11.602;2024-01-25T14:59:37;8.90;99.90
4631;DHT22;2328;48.170;11.602;2024-01-25T15:02:36;8.90;99.90
4631;DHT22;2328;48.170;11.602;2024-01-25T15:05:05;8.90;99.90
4631;DHT22;2328;48.170;11.602;2024-01-25T15:07:34;8.80;99.90
4631;DHT22;2328;48.170;11.602;2024-01-25T15:10:04;8.70;99.90
4631;DHT22;2328;48.170;11.602;2024-01-25T15:12:40;8.90;99.90
4631;DHT22;2328;48.170;11.602;2024-01-25T15:15:22;8.80;99.90
4631;DHT22;2328;48.170;11.602;2024-01-25T15:17:55;8.80;99.90
4631;DHT22;2328;48.170;11.602;2024-01-25T15:20:24;8.70;99.90
4631;DHT22;2328;48.170;11.602;2024-01-25T15:22:52;8.60;99.90
4631;DHT22;2328;48.170;11.602;2024-01-25T15:25:24;8.60;99.90
4631;DHT22;2328;48.170;11.602;2024-01-25T15:27:54;8.50;99.90
4631;DHT22;2328;48.170;11.602;2024-01-25T15:30:23;8.50;99.90
4631;DHT22;2328;48.170;11.602;2024-01-25T15:33:08;8.40;99.90
4631;DHT22;2328;48.170;11.602;2024-01-25T15:35:37;8.40;99.90
4631;DHT22;2328;48.170;11.602;2024-01-25T15:38:07;8.30;99.90
4631;DHT22;2328;48.170;11.602;2024-01-25T15:40:56;8.20;99.90
4631;DHT22;2328;48.170;11.602;2024-01-25T15:43:39;8.20;99.90
4631;DHT22;2328;48.170;11.602;2024-01-25T15:46:07;8.20;99.90
4631;DHT22;2328;48.170;11.602;2024-01-25T15:48:40;8.20;99.90
4631;DHT22;2328;48.170;11.602;2024-01-25T15:51:12;8.20;99.90
4631;DHT22;2328;48.170;11.602;2024-01-25T15:53:41;8.20;99.90
4631;DHT22;2328;48.170;11.602;2024-01-25T15:56:10;8.10;99.90
4631;DHT22;2328;48.170;11.602;2024-01-25T15:58:38;8.20;99.90
4631;DHT22;2328;48.170;11.602;2024-01-25T16:01:10;8.10;99.90
4631;DHT22;2328;48.170;11.602;2024-01-25T16:03:44;8.10;99.90
4631;DHT22;2328;48.170;11.602;2024-01-25T16:06:13;8.10;99.90
4631;DHT22;2328;48.170;11.602;2024-01-25T16:08:42;8.20;99.90
4631;DHT22;2328;48.170;11.602;2024-01-25T16:11:13;8.20;99.90
4631;DHT22;2328;48.170;11.602;2024-01-25T16:13:42;8.10;99.90
4631;DHT22;2328;48.170;11.602;2024-01-25T16:16:30;8.10;99.90
4631;DHT22;2328;48.170;11.602;2024-01-25T16:19:11;8.10;99.90
4631;DHT22;2328;48.170;11.602;2024-01-25T16:21:55;8.00;99.90
4631;DHT22;2328;48.170;11.602;2024-01-25T16:24:26;7.90;99.90
4631;DHT22;2328;48.170;11.602;2024-01-25T16:26:56;7.90;99.90
4631;DHT22;2328;48.170;11.602;2024-01-25T16:29:40;7.80;99.90